sensor_id;sensor_type;location;lat;lon;timestamp;pressure;altitude;pressure_sealevel;temperature;humidity
65534;BME280;53640;55.838;37.184;2023-03-15T00:01:48;98510.22;;;2.24;43.31
65534;BME280;53640;55.838;37.184;2023-03-15T00:04:14;98507.75;;;2.08;43.87
65534;BME280;53640;55.838;37.184;2023-03-15T00:06:41;98468.25;;;2.03;43.83
65534;BME280;53640;55.838;37.184;2023-03-15T00:09:07;98488.50;;;2.12;43.66
65534;BME280;53640;55.838;37.184;2023-03-15T00:11:35;98484.59;;;2.29;43.78
65534;BME280;53640;55.838;37.184;2023-03-15T00:14:01;98501.66;;;2.28;44.53
65534;BME280;53640;55.838;37.184;2023-03-15T00:16:28;98526.03;;;2.25;44.27
65534;BME280;53640;55.838;37.184;2023-03-15T00:18:55;98516.63;;;2.29;43.93
65534;BME280;53640;55.838;37.184;2023-03-15T00:21:22;98527.25;;;2.38;43.78
65534;BME280;53640;55.838;37.184;2023-03-15T00:23:49;98504.41;;;2.35;44.93
65534;BME280;53640;55.838;37.184;2023-03-15T00:26:16;98442.41;;;1.89;44.92
65534;BME280;53640;55.838;37.184;2023-03-15T00:28:43;98523.66;;;2.16;44.00
65534;BME280;53640;55.838;37.184;2023-03-15T00:31:23;98533.13;;;2.33;45.40
65534;BME280;53640;55.838;37.184;2023-03-15T00:33:53;98511.50;;;2.13;44.82
65534;BME280;53640;55.838;37.184;2023-03-15T00:36:23;98465.97;;;2.00;45.33
65534;BME280;53640;55.838;37.184;2023-03-15T00:38:52;98447.09;;;2.01;44.95
65534;BME280;53640;55.838;37.184;2023-03-15T00:41:21;98456.09;;;1.86;44.62
65534;BME280;53640;55.838;37.184;2023-03-15T00:43:48;98513.06;;;2.37;45.58
65534;BME280;53640;55.838;37.184;2023-03-15T00:46:17;98493.09;;;2.18;45.13
65534;BME280;53640;55.838;37.184;2023-03-15T00:48:47;98479.09;;;1.87;45.47
65534;BME280;53640;55.838;37.184;2023-03-15T00:51:17;98504.63;;;2.19;44.75
65534;BME280;53640;55.838;37.184;2023-03-15T00:53:46;98501.38;;;2.23;45.48
65534;BME280;53640;55.838;37.184;2023-03-15T00:56:16;98507.44;;;2.32;44.98
65534;BME280;53640;55.838;37.184;2023-03-15T00:58:44;98485.16;;;2.25;45.31
65534;BME280;53640;55.838;37.184;2023-03-15T01:01:17;98459.88;;;1.91;45.28
65534;BME280;53640;55.838;37.184;2023-03-15T01:03:45;98499.16;;;2.27;45.27
65534;BME280;53640;55.838;37.184;2023-03-15T01:06:16;98472.94;;;2.30;46.02
65534;BME280;53640;55.838;37.184;2023-03-15T01:08:44;98506.63;;;2.02;44.31
65534;BME280;53640;55.838;37.184;2023-03-15T01:11:16;98515.34;;;2.11;44.59
65534;BME280;53640;55.838;37.184;2023-03-15T01:13:43;98504.97;;;2.30;45.39
65534;BME280;53640;55.838;37.184;2023-03-15T01:16:11;98490.81;;;2.15;45.29
65534;BME280;53640;55.838;37.184;2023-03-15T01:18:38;98531.31;;;2.19;46.03
65534;BME280;53640;55.838;37.184;2023-03-15T01:21:09;98484.09;;;1.90;45.35
65534;BME280;53640;55.838;37.184;2023-03-15T01:23:38;98455.28;;;1.85;46.01
65534;BME280;53640;55.838;37.184;2023-03-15T01:26:08;98480.03;;;2.09;45.89
65534;BME280;53640;55.838;37.184;2023-03-15T01:28:35;98506.53;;;2.10;45.63
65534;BME280;53640;55.838;37.184;2023-03-15T01:31:02;98445.25;;;2.02;46.82
65534;BME280;53640;55.838;37.184;2023-03-15T01:33:29;98499.53;;;2.09;45.47
65534;BME280;53640;55.838;37.184;2023-03-15T01:36:03;98486.91;;;2.18;46.10
65534;BME280;53640;55.838;37.184;2023-03-15T01:38:32;98396.13;;;1.81;46.85
65534;BME280;53640;55.838;37.184;2023-03-15T01:41:00;98503.69;;;2.41;46.64
65534;BME280;53640;55.838;37.184;2023-03-15T01:43:29;98445.78;;;2.12;46.56
65534;BME280;53640;55.838;37.184;2023-03-15T01:51:36;98464.00;;;2.09;46.50
65534;BME280;53640;55.838;37.184;2023-03-15T01:54:08;98512.88;;;2.09;46.46
65534;BME280;53640;55.838;37.184;2023-03-15T01:56:40;98503.84;;;2.40;47.00
65534;BME280;53640;55.838;37.184;2023-03-15T01:59:15;98503.84;;;2.40;46.75
65534;BME280;53640;55.838;37.184;2023-03-15T02:01:44;98442.88;;;1.92;47.25
65534;BME280;53640;55.838;37.184;2023-03-15T02:04:16;98400.91;;;1.56;46.28
65534;BME280;53640;55.838;37.184;2023-03-15T02:06:46;98496.50;;;2.12;46.88
65534;BME280;53640;55.838;37.184;2023-03-15T02:09:14;98496.50;;;2.12;47.53
65534;BME280;53640;55.838;37.184;2023-03-15T02:11:44;98504.97;;;2.16;47.03
65534;BME280;53640;55.838;37.184;2023-03-15T02:14:12;98546.47;;;2.18;46.47
65534;BME280;53640;55.838;37.184;2023-03-15T02:16:42;98506.25;;;1.90;47.18
65534;BME280;53640;55.838;37.184;2023-03-15T02:19:46;98512.06;;;2.23;47.27
65534;BME280;53640;55.838;37.184;2023-03-15T02:25:44;98520.34;;;1.99;48.57
65534;BME280;53640;55.838;37.184;2023-03-15T02:27:50;98508.28;;;2.18;47.94
65534;BME280;53640;55.838;37.184;2023-03-15T02:30:16;98521.25;;;2.06;48.25
65534;BME280;53640;55.838;37.184;2023-03-15T02:32:43;98521.34;;;1.83;47.35
65534;BME280;53640;55.838;37.184;2023-03-15T02:35:28;98495.84;;;1.80;48.39
65534;BME280;53640;55.838;37.184;2023-03-15T02:37:57;98509.03;;;2.12;48.01
65534;BME280;53640;55.838;37.184;2023-03-15T02:40:26;98460.78;;;1.69;48.32
65534;BME280;53640;55.838;37.184;2023-03-15T02:42:58;98380.47;;;1.34;48.61
65534;BME280;53640;55.838;37.184;2023-03-15T02:45:26;98464.28;;;1.69;47.84
65534;BME280;53640;55.838;37.184;2023-03-15T02:47:54;98418.94;;;1.40;47.93
65534;BME280;53640;55.838;37.184;2023-03-15T02:50:20;98475.56;;;1.42;48.09
65534;BME280;53640;55.838;37.184;2023-03-15T02:52:47;98483.72;;;1.78;48.86
65534;BME280;53640;55.838;37.184;2023-03-15T02:55:14;98475.41;;;1.73;49.17
65534;BME280;53640;55.838;37.184;2023-03-15T02:57:44;98492.19;;;2.11;49.03
65534;BME280;53640;55.838;37.184;2023-03-15T03:00:11;98477.47;;;1.86;49.18
65534;BME280;53640;55.838;37.184;2023-03-15T03:02:44;98479.09;;;1.72;50.40
65534;BME280;53640;55.838;37.184;2023-03-15T03:05:15;98490.50;;;1.80;50.34
65534;BME280;53640;55.838;37.184;2023-03-15T03:07:43;98512.78;;;1.88;50.45
65534;BME280;53640;55.838;37.184;2023-03-15T03:10:14;98499.91;;;1.91;49.76
65534;BME280;53640;55.838;37.184;2023-03-15T03:12:52;98459.03;;;1.61;50.33
65534;BME280;53640;55.838;37.184;2023-03-15T03:15:24;98452.22;;;1.44;50.58
65534;BME280;53640;55.838;37.184;2023-03-15T03:17:51;98466.13;;;1.69;49.99
65534;BME280;53640;55.838;37.184;2023-03-15T03:20:22;98480.38;;;1.61;51.21
65534;BME280;53640;55.838;37.184;2023-03-15T03:22:50;98498.13;;;1.69;51.30
65534;BME280;53640;55.838;37.184;2023-03-15T03:25:17;98470.25;;;1.71;50.59
65534;BME280;53640;55.838;37.184;2023-03-15T03:27:46;98522.09;;;1.54;50.89
65534;BME280;53640;55.838;37.184;2023-03-15T03:30:14;98487.25;;;1.55;50.65
65534;BME280;53640;55.838;37.184;2023-03-15T03:32:47;98487.16;;;1.49;51.02
65534;BME280;53640;55.838;37.184;2023-03-15T03:35:14;98529.53;;;1.81;50.38
65534;BME280;53640;55.838;37.184;2023-03-15T03:37:41;98535.22;;;1.78;49.80
65534;BME280;53640;55.838;37.184;2023-03-15T03:40:21;98531.72;;;1.78;50.83
65534;BME280;53640;55.838;37.184;2023-03-15T03:42:48;98583.19;;;1.87;50.24
65534;BME280;53640;55.838;37.184;2023-03-15T03:45:17;98515.34;;;1.66;51.25
65534;BME280;53640;55.838;37.184;2023-03-15T03:47:45;98485.69;;;1.61;51.33
65534;BME280;53640;55.838;37.184;2023-03-15T03:50:13;98459.09;;;1.38;51.10
65534;BME280;53640;55.838;37.184;2023-03-15T03:52:39;98521.16;;;1.47;51.65
65534;BME280;53640;55.838;37.184;2023-03-15T03:55:14;98445.88;;;1.07;52.89
65534;BME280;53640;55.838;37.184;2023-03-15T03:57:42;98523.41;;;1.58;51.77
65534;BME280;53640;55.838;37.184;2023-03-15T04:00:14;98507.28;;;1.14;52.93
65534;BME280;53640;55.838;37.184;2023-03-15T04:02:41;98529.66;;;1.65;52.61
65534;BME280;53640;55.838;37.184;2023-03-15T04:05:14;98432.06;;;0.80;51.85
65534;BME280;53640;55.838;37.184;2023-03-15T04:07:41;98516.75;;;1.54;51.94
65534;BME280;53640;55.838;37.184;2023-03-15T04:10:11;98514.03;;;1.24;52.30
65534;BME280;53640;55.838;37.184;2023-03-15T04:12:46;98442.53;;;0.59;53.35
65534;BME280;53640;55.838;37.184;2023-03-15T04:15:29;98378.31;;;0.31;51.87
65534;BME280;53640;55.838;37.184;2023-03-15T04:18:17;98496.03;;;1.03;51.98
65534;BME280;53640;55.838;37.184;2023-03-15T04:21:10;98518.84;;;1.29;51.99
65534;BME280;53640;55.838;37.184;2023-03-15T04:24:15;98527.31;;;1.32;52.92
65534;BME280;53640;55.838;37.184;2023-03-15T04:27:20;98454.59;;;0.47;53.30
65534;BME280;53640;55.838;37.184;2023-03-15T04:30:26;98416.69;;;0.36;52.34
65534;BME280;53640;55.838;37.184;2023-03-15T04:33:27;98452.81;;;0.62;53.89
65534;BME280;53640;55.838;37.184;2023-03-15T04:36:58;98455.69;;;0.60;52.15
65534;BME280;53640;55.838;37.184;2023-03-15T04:40:07;98415.16;;;0.19;53.71
65534;BME280;53640;55.838;37.184;2023-03-15T04:42:58;98472.81;;;0.58;53.92
65534;BME280;53640;55.838;37.184;2023-03-15T04:46:06;98474.91;;;0.40;54.38
65534;BME280;53640;55.838;37.184;2023-03-15T04:49:21;98407.28;;;0.26;53.46
65534;BME280;53640;55.838;37.184;2023-03-15T04:56:15;98468.28;;;0.35;60.82
65534;BME280;53640;55.838;37.184;2023-03-15T04:59:49;98500.22;;;0.35;58.26
65534;BME280;53640;55.838;37.184;2023-03-15T05:02:27;98577.75;;;1.11;58.47
65534;BME280;53640;55.838;37.184;2023-03-15T05:13:54;98508.56;;;0.64;57.11
65534;BME280;53640;55.838;37.184;2023-03-15T05:16:55;98502.66;;;0.53;53.09
65534;BME280;53640;55.838;37.184;2023-03-15T05:54:36;98566.00;;;1.28;51.74
65534;BME280;53640;55.838;37.184;2023-03-15T06:09:45;98504.13;;;1.33;58.28
65534;BME280;53640;55.838;37.184;2023-03-15T06:12:52;98527.59;;;1.75;56.70
65534;BME280;53640;55.838;37.184;2023-03-15T06:16:40;98515.19;;;1.82;52.12
65534;BME280;53640;55.838;37.184;2023-03-15T06:23:45;98551.75;;;2.26;50.15
65534;BME280;53640;55.838;37.184;2023-03-15T06:30:21;98493.75;;;2.20;52.60
65534;BME280;53640;55.838;37.184;2023-03-15T06:37:12;98536.59;;;2.48;54.91
65534;BME280;53640;55.838;37.184;2023-03-15T06:40:07;98678.13;;;3.52;57.72
65534;BME280;53640;55.838;37.184;2023-03-15T06:55:59;98574.16;;;3.27;47.69
65534;BME280;53640;55.838;37.184;2023-03-15T07:09:51;98541.78;;;3.22;51.16
65534;BME280;53640;55.838;37.184;2023-03-15T07:12:28;98571.41;;;3.42;53.13
65534;BME280;53640;55.838;37.184;2023-03-15T07:15:09;98518.88;;;3.13;50.37
65534;BME280;53640;55.838;37.184;2023-03-15T07:21:56;98625.25;;;3.75;51.43
65534;BME280;53640;55.838;37.184;2023-03-15T07:24:22;98668.97;;;4.04;50.53
65534;BME280;53640;55.838;37.184;2023-03-15T07:26:49;98622.78;;;3.52;52.09
65534;BME280;53640;55.838;37.184;2023-03-15T07:29:22;98631.25;;;3.56;50.39
65534;BME280;53640;55.838;37.184;2023-03-15T07:31:50;98634.63;;;3.65;53.10
65534;BME280;53640;55.838;37.184;2023-03-15T07:34:18;98625.16;;;3.62;52.83
65534;BME280;53640;55.838;37.184;2023-03-15T07:36:46;98657.38;;;3.75;52.93
65534;BME280;53640;55.838;37.184;2023-03-15T07:39:13;98654.50;;;3.98;51.31
65534;BME280;53640;55.838;37.184;2023-03-15T07:41:41;98604.44;;;3.71;53.31
65534;BME280;53640;55.838;37.184;2023-03-15T07:44:20;98601.09;;;3.90;51.71
65534;BME280;53640;55.838;37.184;2023-03-15T07:46:47;98631.53;;;4.11;51.78
65534;BME280;53640;55.838;37.184;2023-03-15T07:49:13;98637.97;;;4.16;52.32
65534;BME280;53640;55.838;37.184;2023-03-15T07:51:39;98662.13;;;4.51;48.17
65534;BME280;53640;55.838;37.184;2023-03-15T07:54:08;98677.66;;;4.62;49.45
65534;BME280;53640;55.838;37.184;2023-03-15T07:56:34;98647.78;;;4.65;50.96
65534;BME280;53640;55.838;37.184;2023-03-15T07:59:01;98670.47;;;4.63;49.24
65534;BME280;53640;55.838;37.184;2023-03-15T08:01:27;98670.88;;;4.66;50.25
65534;BME280;53640;55.838;37.184;2023-03-15T08:03:53;98647.06;;;4.50;49.65
65534;BME280;53640;55.838;37.184;2023-03-15T08:06:20;98679.22;;;4.85;47.12
65534;BME280;53640;55.838;37.184;2023-03-15T08:08:46;98738.13;;;5.00;48.78
65534;BME280;53640;55.838;37.184;2023-03-15T08:11:13;98689.56;;;4.88;44.53
65534;BME280;53640;55.838;37.184;2023-03-15T08:13:39;98750.97;;;5.04;46.62
65534;BME280;53640;55.838;37.184;2023-03-15T08:16:06;98709.06;;;5.03;45.85
65534;BME280;53640;55.838;37.184;2023-03-15T08:18:33;98712.41;;;5.12;45.40
65534;BME280;53640;55.838;37.184;2023-03-15T08:21:00;98700.06;;;5.17;47.89
65534;BME280;53640;55.838;37.184;2023-03-15T08:23:29;98714.28;;;5.18;50.14
65534;BME280;53640;55.838;37.184;2023-03-15T08:25:56;98639.81;;;5.20;44.52
65534;BME280;53640;55.838;37.184;2023-03-15T08:28:23;98689.13;;;5.67;48.10
65534;BME280;53640;55.838;37.184;2023-03-15T08:30:49;98677.16;;;5.83;44.40
65534;BME280;53640;55.838;37.184;2023-03-15T08:33:16;98705.31;;;6.07;45.50
65534;BME280;53640;55.838;37.184;2023-03-15T08:35:42;98671.63;;;6.04;40.88
65534;BME280;53640;55.838;37.184;2023-03-15T08:38:09;98667.28;;;6.10;47.41
65534;BME280;53640;55.838;37.184;2023-03-15T08:40:35;98630.09;;;6.07;43.50
65534;BME280;53640;55.838;37.184;2023-03-15T08:43:01;98667.91;;;6.38;46.07
65534;BME280;53640;55.838;37.184;2023-03-15T08:45:28;98589.97;;;6.12;47.81
65534;BME280;53640;55.838;37.184;2023-03-15T08:47:58;98674.06;;;6.65;45.00
65534;BME280;53640;55.838;37.184;2023-03-15T08:50:26;98743.81;;;6.74;42.19
65534;BME280;53640;55.838;37.184;2023-03-15T08:52:56;98566.84;;;6.17;41.14
65534;BME280;53640;55.838;37.184;2023-03-15T08:55:23;98683.81;;;6.86;40.30
65534;BME280;53640;55.838;37.184;2023-03-15T08:57:49;98640.34;;;6.76;45.82
65534;BME280;53640;55.838;37.184;2023-03-15T09:00:16;98676.63;;;7.32;44.08
65534;BME280;53640;55.838;37.184;2023-03-15T09:02:47;98611.63;;;7.22;39.91
65534;BME280;53640;55.838;37.184;2023-03-15T09:05:14;98650.66;;;7.44;43.62
65534;BME280;53640;55.838;37.184;2023-03-15T09:07:41;98655.22;;;7.82;47.75
65534;BME280;53640;55.838;37.184;2023-03-15T09:27:53;98619.75;;;9.94;37.25
65534;BME280;53640;55.838;37.184;2023-03-15T09:30:26;98565.31;;;9.90;32.53
65534;BME280;53640;55.838;37.184;2023-03-15T09:33:07;98601.75;;;9.99;40.50
65534;BME280;53640;55.838;37.184;2023-03-15T09:35:49;98601.41;;;10.19;38.65
65534;BME280;53640;55.838;37.184;2023-03-15T09:38:23;98631.78;;;10.21;39.16
65534;BME280;53640;55.838;37.184;2023-03-15T09:41:28;98680.06;;;10.06;39.74
65534;BME280;53640;55.838;37.184;2023-03-15T09:51:05;98648.53;;;9.58;38.62
65534;BME280;53640;55.838;37.184;2023-03-15T09:53:58;98598.63;;;9.61;35.92
65534;BME280;53640;55.838;37.184;2023-03-15T09:56:33;98708.81;;;9.89;36.59
65534;BME280;53640;55.838;37.184;2023-03-15T09:59:03;98673.78;;;9.82;43.65
65534;BME280;53640;55.838;37.184;2023-03-15T10:01:36;98730.25;;;10.02;42.39
65534;BME280;53640;55.838;37.184;2023-03-15T10:04:17;98765.63;;;10.00;39.87
65534;BME280;53640;55.838;37.184;2023-03-15T10:06:54;98700.03;;;9.63;36.77
65534;BME280;53640;55.838;37.184;2023-03-15T10:09:23;98720.09;;;9.86;36.47
65534;BME280;53640;55.838;37.184;2023-03-15T10:12:00;98701.09;;;10.04;34.45
65534;BME280;53640;55.838;37.184;2023-03-15T10:18:14;98720.84;;;10.35;35.23
65534;BME280;53640;55.838;37.184;2023-03-15T10:21:00;98582.50;;;9.54;35.54
65534;BME280;53640;55.838;37.184;2023-03-15T10:23:42;98636.16;;;9.80;34.41
65534;BME280;53640;55.838;37.184;2023-03-15T10:26:14;98642.75;;;9.85;34.44
65534;BME280;53640;55.838;37.184;2023-03-15T10:28:48;98593.56;;;9.34;34.31
65534;BME280;53640;55.838;37.184;2023-03-15T10:31:23;98664.75;;;10.00;34.33
65534;BME280;53640;55.838;37.184;2023-03-15T10:33:56;98708.63;;;10.02;34.15
65534;BME280;53640;55.838;37.184;2023-03-15T10:36:23;98610.59;;;9.34;34.69
65534;BME280;53640;55.838;37.184;2023-03-15T10:38:50;98638.09;;;9.43;35.20
65534;BME280;53640;55.838;37.184;2023-03-15T10:41:39;98716.34;;;9.87;34.74
65534;BME280;53640;55.838;37.184;2023-03-15T10:44:11;98606.19;;;9.22;34.94
65534;BME280;53640;55.838;37.184;2023-03-15T10:46:38;98618.19;;;9.26;35.08
65534;BME280;53640;55.838;37.184;2023-03-15T10:49:13;98610.22;;;9.13;34.88
65534;BME280;53640;55.838;37.184;2023-03-15T10:51:42;98674.41;;;9.47;34.39
65534;BME280;53640;55.838;37.184;2023-03-15T10:54:17;98715.16;;;9.46;35.01
65534;BME280;53640;55.838;37.184;2023-03-15T10:56:50;98594.50;;;8.54;35.39
65534;BME280;53640;55.838;37.184;2023-03-15T10:59:28;98558.28;;;8.25;35.59
65534;BME280;53640;55.838;37.184;2023-03-15T11:04:42;98702.38;;;8.79;35.95
65534;BME280;53640;55.838;37.184;2023-03-15T11:07:09;98696.84;;;8.49;36.97
65534;BME280;53640;55.838;37.184;2023-03-15T11:09:43;98665.63;;;8.35;36.73
65534;BME280;53640;55.838;37.184;2023-03-15T11:12:28;98701.69;;;8.41;36.77
65534;BME280;53640;55.838;37.184;2023-03-15T11:14:58;98693.50;;;8.29;37.33
65534;BME280;53640;55.838;37.184;2023-03-15T11:17:28;98663.38;;;8.00;37.77
65534;BME280;53640;55.838;37.184;2023-03-15T11:19:58;98683.16;;;8.19;37.51
65534;BME280;53640;55.838;37.184;2023-03-15T11:22:34;98606.56;;;7.77;37.73
65534;BME280;53640;55.838;37.184;2023-03-15T11:25:02;98700.81;;;8.15;37.85
65534;BME280;53640;55.838;37.184;2023-03-15T11:27:29;98694.47;;;8.03;38.09
65534;BME280;53640;55.838;37.184;2023-03-15T11:29:58;98644.50;;;7.75;38.19
65534;BME280;53640;55.838;37.184;2023-03-15T11:32:31;98689.66;;;7.80;38.29
65534;BME280;53640;55.838;37.184;2023-03-15T11:35:05;98673.38;;;7.93;38.60
65534;BME280;53640;55.838;37.184;2023-03-15T11:37:44;98637.50;;;7.68;38.37
65534;BME280;53640;55.838;37.184;2023-03-15T11:40:22;98672.56;;;7.93;38.40
65534;BME280;53640;55.838;37.184;2023-03-15T11:45:33;98681.78;;;8.10;38.29
65534;BME280;53640;55.838;37.184;2023-03-15T11:48:38;98677.13;;;7.92;38.53
65534;BME280;53640;55.838;37.184;2023-03-15T11:51:17;98716.88;;;7.97;38.54
65534;BME280;53640;55.838;37.184;2023-03-15T11:54:05;98650.72;;;7.76;38.65
65534;BME280;53640;55.838;37.184;2023-03-15T11:56:50;98632.59;;;7.51;38.74
65534;BME280;53640;55.838;37.184;2023-03-15T11:59:29;98598.84;;;7.10;38.85
65534;BME280;53640;55.838;37.184;2023-03-15T12:10:57;98554.34;;;6.56;39.64
65534;BME280;53640;55.838;37.184;2023-03-15T12:13:29;98608.22;;;7.01;39.90
65534;BME280;53640;55.838;37.184;2023-03-15T12:16:13;98567.72;;;6.70;39.45
65534;BME280;53640;55.838;37.184;2023-03-15T12:18:46;98635.66;;;7.23;39.42
65534;BME280;53640;55.838;37.184;2023-03-15T12:21:23;98557.59;;;6.78;39.44
65534;BME280;53640;55.838;37.184;2023-03-15T12:24:02;98688.19;;;7.77;39.28
65534;BME280;53640;55.838;37.184;2023-03-15T12:26:48;98621.19;;;7.18;39.37
65534;BME280;53640;55.838;37.184;2023-03-15T12:29:36;98683.53;;;7.59;39.09
65534;BME280;53640;55.838;37.184;2023-03-15T12:32:16;98615.78;;;7.18;39.58
65534;BME280;53640;55.838;37.184;2023-03-15T12:34:54;98604.28;;;7.04;39.61
65534;BME280;53640;55.838;37.184;2023-03-15T12:47:45;98625.69;;;7.69;38.44
65534;BME280;53640;55.838;37.184;2023-03-15T12:56:24;98687.28;;;8.22;38.48
65534;BME280;53640;55.838;37.184;2023-03-15T12:59:39;98690.91;;;8.41;38.24
65534;BME280;53640;55.838;37.184;2023-03-15T13:02:32;98561.13;;;7.80;38.18
65534;BME280;53640;55.838;37.184;2023-03-15T13:10:36;98663.84;;;9.09;37.01
65534;BME280;53640;55.838;37.184;2023-03-15T13:13:13;98654.94;;;9.08;36.72
65534;BME280;53640;55.838;37.184;2023-03-15T13:16:11;98732.72;;;9.55;36.69
65534;BME280;53640;55.838;37.184;2023-03-15T13:21:35;98585.75;;;8.59;35.78
65534;BME280;53640;55.838;37.184;2023-03-15T13:24:09;98629.44;;;8.86;36.74
65534;BME280;53640;55.838;37.184;2023-03-15T13:26:54;98695.69;;;9.74;36.74
65534;BME280;53640;55.838;37.184;2023-03-15T13:29:30;98704.88;;;9.73;36.67
65534;BME280;53640;55.838;37.184;2023-03-15T13:32:15;98570.16;;;8.79;36.32
65534;BME280;53640;55.838;37.184;2023-03-15T13:34:47;98661.28;;;9.32;36.17
65534;BME280;53640;55.838;37.184;2023-03-15T13:37:33;98672.69;;;9.34;36.28
65534;BME280;53640;55.838;37.184;2023-03-15T13:40:10;98647.44;;;8.92;35.96
65534;BME280;53640;55.838;37.184;2023-03-15T13:42:40;98580.00;;;8.30;36.59
65534;BME280;53640;55.838;37.184;2023-03-15T13:45:12;98602.28;;;7.94;37.69
65534;BME280;53640;55.838;37.184;2023-03-15T13:47:41;98637.97;;;8.15;37.79
65534;BME280;53640;55.838;37.184;2023-03-15T13:50:20;98639.81;;;7.89;38.02
65534;BME280;53640;55.838;37.184;2023-03-15T13:52:47;98719.81;;;8.27;38.18
65534;BME280;53640;55.838;37.184;2023-03-15T13:55:22;98656.69;;;7.46;39.92
65534;BME280;53640;55.838;37.184;2023-03-15T13:57:56;98679.22;;;7.52;39.61
65534;BME280;53640;55.838;37.184;2023-03-15T14:00:25;98630.75;;;7.07;41.42
65534;BME280;53640;55.838;37.184;2023-03-15T14:02:57;98584.47;;;6.78;40.58
65534;BME280;53640;55.838;37.184;2023-03-15T14:05:32;98605.41;;;6.63;41.11
65534;BME280;53640;55.838;37.184;2023-03-15T14:08:35;98688.44;;;7.31;40.10
65534;BME280;53640;55.838;37.184;2023-03-15T14:11:42;98703.59;;;7.19;41.22
65534;BME280;53640;55.838;37.184;2023-03-15T14:14:26;98666.00;;;6.79;41.43
65534;BME280;53640;55.838;37.184;2023-03-15T14:16:53;98701.59;;;6.74;42.10
65534;BME280;53640;55.838;37.184;2023-03-15T14:19:27;98668.91;;;6.57;41.50
65534;BME280;53640;55.838;37.184;2023-03-15T14:22:12;98674.09;;;6.52;41.77
65534;BME280;53640;55.838;37.184;2023-03-15T14:24:42;98715.66;;;6.76;41.59
65534;BME280;53640;55.838;37.184;2023-03-15T14:29:47;98672.25;;;6.26;42.29
65534;BME280;53640;55.838;37.184;2023-03-15T14:32:30;98725.19;;;6.52;42.61
65534;BME280;53640;55.838;37.184;2023-03-15T14:37:41;98676.81;;;6.26;42.63
65534;BME280;53640;55.838;37.184;2023-03-15T14:40:28;98728.47;;;6.54;42.63
65534;BME280;53640;55.838;37.184;2023-03-15T14:42:55;98673.47;;;6.24;42.81
65534;BME280;53640;55.838;37.184;2023-03-15T14:45:22;98666.03;;;6.19;42.75
65534;BME280;53640;55.838;37.184;2023-03-15T14:47:54;98715.25;;;6.46;42.92
65534;BME280;53640;55.838;37.184;2023-03-15T14:50:24;98624.88;;;5.79;43.24
65534;BME280;53640;55.838;37.184;2023-03-15T14:52:51;98676.97;;;5.98;42.91
65534;BME280;53640;55.838;37.184;2023-03-15T14:55:23;98603.38;;;5.39;43.33
65534;BME280;53640;55.838;37.184;2023-03-15T14:57:53;98695.38;;;6.01;42.97
65534;BME280;53640;55.838;37.184;2023-03-15T15:00:20;98725.34;;;6.04;43.72
65534;BME280;53640;55.838;37.184;2023-03-15T15:02:51;98646.34;;;5.59;43.81
65534;BME280;53640;55.838;37.184;2023-03-15T15:05:38;98608.88;;;5.24;43.99
65534;BME280;53640;55.838;37.184;2023-03-15T15:08:11;98639.50;;;5.56;43.55
65534;BME280;53640;55.838;37.184;2023-03-15T15:10:43;98602.53;;;5.32;43.86
65534;BME280;53640;55.838;37.184;2023-03-15T15:13:19;98610.56;;;5.32;43.57
65534;BME280;53640;55.838;37.184;2023-03-15T15:15:47;98677.78;;;5.78;44.02
65534;BME280;53640;55.838;37.184;2023-03-15T15:18:14;98714.38;;;5.92;44.19
65534;BME280;53640;55.838;37.184;2023-03-15T15:20:54;98513.97;;;4.64;44.02
65534;BME280;53640;55.838;37.184;2023-03-15T15:23:29;98655.56;;;5.36;44.37
65534;BME280;53640;55.838;37.184;2023-03-15T15:26:02;98576.50;;;4.78;44.54
65534;BME280;53640;55.838;37.184;2023-03-15T15:28:32;98632.72;;;5.06;44.75
65534;BME280;53640;55.838;37.184;2023-03-15T15:31:06;98542.34;;;4.45;45.06
65534;BME280;53640;55.838;37.184;2023-03-15T15:33:53;98571.81;;;4.45;44.94
65534;BME280;53640;55.838;37.184;2023-03-15T15:36:32;98606.59;;;4.73;44.81
65534;BME280;53640;55.838;37.184;2023-03-15T15:39:36;98693.00;;;5.10;45.18
65534;BME280;53640;55.838;37.184;2023-03-15T15:42:09;98643.94;;;4.75;45.26
65534;BME280;53640;55.838;37.184;2023-03-15T15:44:38;98671.41;;;4.83;45.33
65534;BME280;53640;55.838;37.184;2023-03-15T15:47:12;98663.09;;;4.71;45.49
65534;BME280;53640;55.838;37.184;2023-03-15T15:49:46;98558.34;;;4.04;45.44
65534;BME280;53640;55.838;37.184;2023-03-15T15:52:18;98555.03;;;4.02;45.07
65534;BME280;53640;55.838;37.184;2023-03-15T15:55:22;98683.94;;;4.76;45.54
65534;BME280;53640;55.838;37.184;2023-03-15T15:57:52;98727.59;;;4.98;45.73
65534;BME280;53640;55.838;37.184;2023-03-15T16:00:24;98691.47;;;4.59;45.84
65534;BME280;53640;55.838;37.184;2023-03-15T16:02:52;98674.06;;;4.48;45.74
65534;BME280;53640;55.838;37.184;2023-03-15T16:05:29;98726.25;;;4.81;45.56
65534;BME280;53640;55.838;37.184;2023-03-15T16:08:05;98701.31;;;4.52;45.63
65534;BME280;53640;55.838;37.184;2023-03-15T16:10:58;98572.88;;;3.66;46.13
65534;BME280;53640;55.838;37.184;2023-03-15T16:14:00;98711.47;;;4.35;46.10
65534;BME280;53640;55.838;37.184;2023-03-15T16:16:27;98741.97;;;4.62;46.20
65534;BME280;53640;55.838;37.184;2023-03-15T16:18:53;98757.88;;;4.64;45.99
65534;BME280;53640;55.838;37.184;2023-03-15T16:21:32;98755.81;;;4.59;46.22
65534;BME280;53640;55.838;37.184;2023-03-15T16:26:33;98684.47;;;4.09;46.13
65534;BME280;53640;55.838;37.184;2023-03-15T16:29:01;98726.72;;;4.35;46.38
65534;BME280;53640;55.838;37.184;2023-03-15T16:31:30;98718.00;;;4.26;46.43
65534;BME280;53640;55.838;37.184;2023-03-15T16:34:00;98700.97;;;4.12;45.86
65534;BME280;53640;55.838;37.184;2023-03-15T16:36:26;98724.94;;;4.20;46.15
65534;BME280;53640;55.838;37.184;2023-03-15T16:38:54;98763.47;;;4.41;46.58
65534;BME280;53640;55.838;37.184;2023-03-15T16:41:20;98723.56;;;4.03;46.45
65534;BME280;53640;55.838;37.184;2023-03-15T16:43:46;98764.00;;;4.30;46.08
65534;BME280;53640;55.838;37.184;2023-03-15T16:49:06;98811.75;;;4.26;46.09